Time,TemperatureF,DewpointF,PressureIn,WindDirection,WindDirectionDegrees,WindSpeedMPH,WindSpeedGustMPH,Humidity,HourlyPrecipIn,Conditions,Clouds,dailyrainin,SoftwareType,DateUTC
2013-10-29 00:01:00,37.4,26.0,30.37,NNW,338,5.4,5.6,63,0.00,,,0.00,WUHU216HW,2013-10-29 04:01:00,
2013-10-29 00:06:00,37.3,25.5,30.37,North,0,6.3,6.9,62,0.00,,,0.00,WUHU216HW,2013-10-29 04:06:00,
2013-10-29 00:11:00,37.1,26.0,30.37,NNW,338,5.8,8.3,64,0.00,,,0.00,WUHU216HW,2013-10-29 04:11:00,
2013-10-29 00:16:00,37.1,25.7,30.37,NW,315,8.1,8.3,63,0.00,,,0.00,WUHU216HW,2013-10-29 04:16:00,
2013-10-29 00:21:00,37.3,26.2,30.37,North,0,5.8,8.5,64,0.00,,,0.00,WUHU216HW,2013-10-29 04:21:00,
2013-10-29 00:26:00,37.1,25.7,30.37,NNW,338,5.1,8.5,63,0.00,,,0.00,WUHU216HW,2013-10-29 04:26:00,
2013-10-29 00:31:00,37.1,25.7,30.37,NW,315,10.1,10.1,63,0.00,,,0.00,WUHU216HW,2013-10-29 04:31:00,
2013-10-29 00:36:00,37.1,26.4,30.37,NW,315,8.3,10.1,65,0.00,,,0.00,WUHU216HW,2013-10-29 04:36:00,
2013-10-29 00:41:00,37.1,26.0,30.37,NW,315,5.4,9.2,64,0.00,,,0.00,WUHU216HW,2013-10-29 04:41:00,
2013-10-29 00:46:00,36.9,25.8,30.37,NW,315,8.1,9.2,64,0.00,,,0.00,WUHU216HW,2013-10-29 04:46:00,
2013-10-29 00:51:00,36.7,26.0,30.37,NNW,338,7.4,9.2,65,0.00,,,0.00,WUHU216HW,2013-10-29 04:51:00,
2013-10-29 00:56:00,36.7,26.0,30.38,NNW,338,7.6,11.2,65,0.00,,,0.00,WUHU216HW,2013-10-29 04:56:00,
2013-10-29 01:01:00,36.7,25.7,30.38,NNW,338,5.8,11.2,64,0.00,,,0.00,WUHU216HW,2013-10-29 05:01:00,
2013-10-29 01:06:00,36.5,25.5,30.38,North,0,3.8,6.5,64,0.00,,,0.00,WUHU216HW,2013-10-29 05:06:00,
2013-10-29 01:11:00,36.4,25.4,30.38,North,0,1.3,6.3,64,0.00,,,0.00,WUHU216HW,2013-10-29 05:11:00,
2013-10-29 01:16:00,36.2,25.2,30.38,North,0,2.7,5.4,64,0.00,,,0.00,WUHU216HW,2013-10-29 05:16:00,
2013-10-29 01:21:00,36.0,24.7,30.38,North,0,1.8,5.4,63,0.00,,,0.00,WUHU216HW,2013-10-29 05:21:00,
2013-10-29 01:26:00,35.8,24.5,30.38,ENE,68,1.1,3.6,63,0.00,,,0.00,WUHU216HW,2013-10-29 05:26:00,
2013-10-29 01:31:00,35.6,24.3,30.38,NNW,338,1.8,2.7,63,0.00,,,0.00,WUHU216HW,2013-10-29 05:31:00,
2013-10-29 01:36:00,35.5,24.1,30.38,NNE,23,2.9,2.9,63,0.00,,,0.00,WUHU216HW,2013-10-29 05:36:00,
2013-10-29 01:41:00,35.3,23.9,30.38,North,0,0.9,3.1,63,0.00,,,0.00,WUHU216HW,2013-10-29 05:41:00,
2013-10-29 01:46:00,35.1,24.1,30.38,NNW,338,1.3,3.8,64,0.00,,,0.00,WUHU216HW,2013-10-29 05:46:00,
2013-10-29 01:51:00,34.9,23.9,30.38,North,0,1.8,4.0,64,0.00,,,0.00,WUHU216HW,2013-10-29 05:51:00,
2013-10-29 01:56:00,34.9,23.9,30.38,North,0,2.0,4.0,64,0.00,,,0.00,WUHU216HW,2013-10-29 05:56:00,
2013-10-29 02:01:00,34.9,23.9,30.38,NNW,338,1.6,2.0,64,0.00,,,0.00,WUHU216HW,2013-10-29 06:01:00,
2013-10-29 02:06:00,34.9,24.3,30.39,NNW,338,3.4,3.4,65,0.00,,,0.00,WUHU216HW,2013-10-29 06:06:00,
2013-10-29 02:11:00,34.9,24.3,30.39,NNW,338,5.4,5.4,65,0.00,,,0.00,WUHU216HW,2013-10-29 06:11:00,
2013-10-29 02:16:00,35.3,25.4,30.39,NNW,338,5.1,8.1,67,0.00,,,0.00,WUHU216HW,2013-10-29 06:16:00,
2013-10-29 02:21:00,35.6,25.7,30.39,North,0,2.9,8.1,67,0.00,,,0.00,WUHU216HW,2013-10-29 06:21:00,
2013-10-29 02:26:00,35.5,25.6,30.39,NNW,338,2.0,7.4,67,0.00,,,0.00,WUHU216HW,2013-10-29 06:26:00,
2013-10-29 02:31:00,35.3,25.0,30.39,North,0,1.1,4.5,66,0.00,,,0.00,WUHU216HW,2013-10-29 06:31:00,
2013-10-29 02:36:00,35.1,24.8,30.39,NE,45,1.1,1.8,66,0.00,,,0.00,WUHU216HW,2013-10-29 06:36:00,
2013-10-29 02:41:00,34.9,24.3,30.39,NNW,338,2.0,2.2,65,0.00,,,0.00,WUHU216HW,2013-10-29 06:41:00,
2013-10-29 02:46:00,34.7,24.1,30.39,North,0,1.8,2.2,65,0.00,,,0.00,WUHU216HW,2013-10-29 06:46:00,
2013-10-29 02:51:00,34.6,23.9,30.39,NNW,338,1.1,3.1,65,0.00,,,0.00,WUHU216HW,2013-10-29 06:51:00,
2013-10-29 02:56:00,34.6,23.9,30.39,North,0,2.5,3.1,65,0.00,,,0.00,WUHU216HW,2013-10-29 06:56:00,
2013-10-29 03:01:00,34.4,23.8,30.40,NNW,338,2.5,3.8,65,0.00,,,0.00,WUHU216HW,2013-10-29 07:01:00,
2013-10-29 03:06:00,34.4,23.8,30.40,NNW,338,1.6,3.8,65,0.00,,,0.00,WUHU216HW,2013-10-29 07:06:00,
2013-10-29 03:11:00,34.4,23.8,30.39,North,0,1.8,2.7,65,0.00,,,0.00,WUHU216HW,2013-10-29 07:11:00,
2013-10-29 03:16:00,34.4,23.8,30.39,North,0,2.2,2.2,65,0.00,,,0.00,WUHU216HW,2013-10-29 07:16:00,
2013-10-29 03:21:00,34.4,23.8,30.39,NNW,338,2.5,2.5,65,0.00,,,0.00,WUHU216HW,2013-10-29 07:21:00,
2013-10-29 03:26:00,34.2,23.6,30.39,North,0,1.1,2.5,65,0.00,,,0.00,WUHU216HW,2013-10-29 07:26:00,
2013-10-29 03:31:00,34.2,23.6,30.39,North,0,0.4,1.6,65,0.00,,,0.00,WUHU216HW,2013-10-29 07:31:00,
2013-10-29 03:36:00,34.2,23.6,30.40,North,0,2.2,2.2,65,0.00,,,0.00,WUHU216HW,2013-10-29 07:36:00,
2013-10-29 03:41:00,34.2,23.6,30.40,North,0,2.0,2.2,65,0.00,,,0.00,WUHU216HW,2013-10-29 07:41:00,
2013-10-29 03:46:00,34.4,23.8,30.40,North,0,1.8,2.0,65,0.00,,,0.00,WUHU216HW,2013-10-29 07:46:00,
2013-10-29 03:51:00,34.4,23.4,30.40,NNE,23,1.1,2.5,64,0.00,,,0.00,WUHU216HW,2013-10-29 07:51:00,
2013-10-29 03:56:00,34.2,23.2,30.40,NNE,23,1.8,2.5,64,0.00,,,0.00,WUHU216HW,2013-10-29 07:56:00,
2013-10-29 04:01:00,34.2,23.2,30.40,NW,315,1.8,2.0,64,0.00,,,0.00,WUHU216HW,2013-10-29 08:01:00,
2013-10-29 04:06:00,34.0,23.4,30.40,North,0,1.1,2.0,65,0.00,,,0.00,WUHU216HW,2013-10-29 08:06:00,
2013-10-29 04:11:00,34.0,23.4,30.40,North,0,1.8,2.0,65,0.00,,,0.00,WUHU216HW,2013-10-29 08:11:00,
2013-10-29 04:16:00,33.8,23.2,30.40,NNE,23,1.3,1.8,65,0.00,,,0.00,WUHU216HW,2013-10-29 08:16:00,
2013-10-29 04:21:00,33.8,23.2,30.40,NNE,23,2.5,2.5,65,0.00,,,0.00,WUHU216HW,2013-10-29 08:21:00,
2013-10-29 04:26:00,33.8,23.2,30.40,NNE,23,0.4,2.5,65,0.00,,,0.00,WUHU216HW,2013-10-29 08:26:00,
2013-10-29 04:31:00,33.7,23.0,30.40,NNW,338,0.0,2.2,65,0.00,,,0.00,WUHU216HW,2013-10-29 08:31:00,
2013-10-29 04:36:00,33.5,22.9,30.40,ESE,113,1.1,2.2,65,0.00,,,0.00,WUHU216HW,2013-10-29 08:36:00,
2013-10-29 04:41:00,33.1,22.2,30.40,ESE,113,0.2,1.8,64,0.00,,,0.00,WUHU216HW,2013-10-29 08:41:00,
2013-10-29 04:46:00,32.4,21.6,30.40,SE,135,1.3,1.8,64,0.00,,,0.00,WUHU216HW,2013-10-29 08:46:00,
2013-10-29 04:51:00,31.7,21.2,30.40,SE,135,1.8,1.8,65,0.00,,,0.00,WUHU216HW,2013-10-29 08:51:00,
2013-10-29 04:56:00,31.0,20.9,30.40,SE,135,2.5,2.5,66,0.00,,,0.00,WUHU216HW,2013-10-29 08:56:00,
2013-10-29 05:01:00,30.2,20.2,30.40,SE,135,1.3,2.5,66,0.00,,,0.00,WUHU216HW,2013-10-29 09:01:00,
2013-10-29 05:06:00,29.7,19.7,30.41,ESE,113,1.6,2.5,66,0.00,,,0.00,WUHU216HW,2013-10-29 09:06:00,
2013-10-29 05:11:00,29.2,19.2,30.41,SE,135,2.2,2.2,66,0.00,,,0.00,WUHU216HW,2013-10-29 09:11:00,
2013-10-29 05:16:00,28.8,19.3,30.41,SE,135,2.0,2.5,67,0.00,,,0.00,WUHU216HW,2013-10-29 09:16:00,
2013-10-29 05:21:00,28.3,18.7,30.41,SE,135,2.2,2.5,67,0.00,,,0.00,WUHU216HW,2013-10-29 09:21:00,
2013-10-29 05:26:00,27.9,19.1,30.42,ESE,113,2.7,2.9,69,0.00,,,0.00,WUHU216HW,2013-10-29 09:26:00,
2013-10-29 05:31:00,27.7,18.9,30.42,SE,135,2.0,2.9,69,0.00,,,0.00,WUHU216HW,2013-10-29 09:31:00,
2013-10-29 05:36:00,27.4,18.5,30.42,ESE,113,3.1,3.1,69,0.00,,,0.00,WUHU216HW,2013-10-29 09:36:00,
2013-10-29 05:41:00,27.0,18.8,30.42,ESE,113,2.7,3.1,71,0.00,,,0.00,WUHU216HW,2013-10-29 09:41:00,
2013-10-29 05:46:00,26.6,18.5,30.42,SE,135,2.5,2.9,71,0.00,,,0.00,WUHU216HW,2013-10-29 09:46:00,
2013-10-29 05:51:00,26.6,18.5,30.42,SE,135,2.7,2.9,71,0.00,,,0.00,WUHU216HW,2013-10-29 09:51:00,
2013-10-29 05:56:00,26.5,18.6,30.42,SE,135,2.2,2.7,72,0.00,,,0.00,WUHU216HW,2013-10-29 09:56:00,
2013-10-29 06:01:00,26.3,18.5,30.42,ESE,113,1.8,2.9,72,0.00,,,0.00,WUHU216HW,2013-10-29 10:01:00,
2013-10-29 06:06:00,26.3,18.5,30.42,ESE,113,2.0,2.9,72,0.00,,,0.00,WUHU216HW,2013-10-29 10:06:00,
2013-10-29 06:11:00,26.3,18.5,30.43,SE,135,2.5,2.5,72,0.00,,,0.00,WUHU216HW,2013-10-29 10:11:00,
2013-10-29 06:16:00,26.3,18.5,30.43,SE,135,2.5,2.7,72,0.00,,,0.00,WUHU216HW,2013-10-29 10:16:00,
2013-10-29 06:21:00,26.5,18.6,30.43,SE,135,3.1,3.6,72,0.00,,,0.00,WUHU216HW,2013-10-29 10:21:00,
2013-10-29 06:26:00,26.5,18.9,30.43,SE,135,2.9,3.6,73,0.00,,,0.00,WUHU216HW,2013-10-29 10:26:00,
2013-10-29 06:31:00,26.3,18.7,30.43,SE,135,2.7,3.6,73,0.00,,,0.00,WUHU216HW,2013-10-29 10:31:00,
2013-10-29 06:36:00,26.3,18.5,30.43,SE,135,3.1,3.8,72,0.00,,,0.00,WUHU216HW,2013-10-29 10:36:00,
2013-10-29 06:41:00,25.9,18.4,30.43,SE,135,2.7,3.8,73,0.00,,,0.00,WUHU216HW,2013-10-29 10:41:00,
2013-10-29 06:46:00,25.6,18.1,30.43,SE,135,2.9,3.1,73,0.00,,,0.00,WUHU216HW,2013-10-29 10:46:00,
2013-10-29 06:51:00,25.4,17.9,30.43,SE,135,2.7,3.1,73,0.00,,,0.00,WUHU216HW,2013-10-29 10:51:00,
2013-10-29 06:56:00,25.0,17.6,30.43,SE,135,2.5,3.1,73,0.00,,,0.00,WUHU216HW,2013-10-29 10:56:00,
2013-10-29 07:01:00,24.8,17.4,30.43,SE,135,2.7,2.7,73,0.00,,,0.00,WUHU216HW,2013-10-29 11:01:00,
2013-10-29 07:06:00,24.5,17.0,30.43,SE,135,2.7,2.7,73,0.00,,,0.00,WUHU216HW,2013-10-29 11:06:00,
2013-10-29 07:11:00,24.3,16.8,30.43,SE,135,2.5,3.1,73,0.00,,,0.00,WUHU216HW,2013-10-29 11:11:00,
2013-10-29 07:16:00,24.1,16.7,30.43,SE,135,2.5,3.1,73,0.00,,,0.00,WUHU216HW,2013-10-29 11:16:00,
2013-10-29 07:21:00,23.6,16.2,30.43,SE,135,2.7,3.4,73,0.00,,,0.00,WUHU216HW,2013-10-29 11:21:00,
2013-10-29 07:26:00,23.4,16.3,30.43,SE,135,2.2,3.4,74,0.00,,,0.00,WUHU216HW,2013-10-29 11:26:00,
2013-10-29 07:31:00,23.4,16.7,30.43,ESE,113,2.5,2.7,75,0.00,,,0.00,WUHU216HW,2013-10-29 11:31:00,
2013-10-29 07:36:00,23.4,16.7,30.44,ESE,113,3.1,3.1,75,0.00,,,0.00,WUHU216HW,2013-10-29 11:36:00,
2013-10-29 07:41:00,23.4,16.7,30.44,SE,135,2.7,3.1,75,0.00,,,0.00,WUHU216HW,2013-10-29 11:41:00,
2013-10-29 07:46:00,23.8,17.3,30.44,SE,135,3.1,3.4,76,0.00,,,0.00,WUHU216HW,2013-10-29 11:46:00,
2013-10-29 07:51:00,24.1,17.9,30.44,SE,135,2.5,3.4,77,0.00,,,0.00,WUHU216HW,2013-10-29 11:51:00,
2013-10-29 07:56:00,24.7,18.5,30.44,SE,135,2.5,3.1,77,0.00,,,0.00,WUHU216HW,2013-10-29 11:56:00,
2013-10-29 08:01:00,24.8,18.6,30.44,ESE,113,2.9,3.1,77,0.00,,,0.00,WUHU216HW,2013-10-29 12:01:00,
2013-10-29 08:06:00,25.2,19.0,30.45,ESE,113,2.5,3.1,77,0.00,,,0.00,WUHU216HW,2013-10-29 12:06:00,
2013-10-29 08:11:00,25.6,19.4,30.45,SE,135,2.9,3.1,77,0.00,,,0.00,WUHU216HW,2013-10-29 12:11:00,
2013-10-29 08:16:00,25.7,19.5,30.45,ESE,113,2.7,3.1,77,0.00,,,0.00,WUHU216HW,2013-10-29 12:16:00,
2013-10-29 08:20:00,25.9,19.6,30.45,ESE,113,3.6,3.6,77,0.00,,,0.00,WUHU216HW,2013-10-29 12:20:00,
2013-10-29 08:21:00,25.9,19.6,30.45,ESE,113,3.6,3.6,77,0.00,,,0.00,WUHU216HW,2013-10-29 12:21:00,
2013-10-29 08:26:00,25.9,19.6,30.45,ESE,113,3.6,3.6,77,0.00,,,0.00,WUHU216HW,2013-10-29 12:26:00,
2013-10-29 08:50:00,28.3,22.0,30.46,SE,135,2.9,2.9,77,0.00,,,0.00,WUHU216HW,2013-10-29 12:50:00,
2013-10-29 08:55:00,28.4,22.2,30.46,SE,135,3.4,3.4,77,0.00,,,0.00,WUHU216HW,2013-10-29 12:55:00,
2013-10-29 09:00:00,29.0,22.7,30.46,SE,135,2.7,3.4,77,0.00,,,0.00,WUHU216HW,2013-10-29 13:00:00,
2013-10-29 09:03:00,29.2,22.5,30.46,SE,135,2.0,3.4,76,0.00,,,0.00,WUHU216HW,2013-10-29 13:03:00,
2013-10-29 09:04:00,29.2,22.5,30.46,ESE,113,2.5,3.4,76,0.00,,,0.00,WUHU216HW,2013-10-29 13:04:00,
2013-10-29 09:07:00,29.5,22.9,30.46,SE,135,2.5,2.7,76,0.00,,,0.00,WUHU216HW,2013-10-29 13:07:00,
2013-10-29 09:08:00,29.5,22.9,30.46,SE,135,2.5,2.7,76,0.00,,,0.00,WUHU216HW,2013-10-29 13:08:00,
2013-10-29 09:09:00,29.7,23.1,30.46,SE,135,2.5,2.7,76,0.00,,,0.00,WUHU216HW,2013-10-29 13:09:00,
2013-10-29 09:10:00,29.7,23.1,30.46,SE,135,2.2,2.5,76,0.00,,,0.00,WUHU216HW,2013-10-29 13:10:00,
2013-10-29 09:11:00,29.9,23.2,30.46,SE,135,2.5,2.5,76,0.00,,,0.00,WUHU216HW,2013-10-29 13:11:00,
2013-10-29 09:14:00,29.9,23.5,30.46,SE,135,2.5,2.5,77,0.00,,,0.00,WUHU216HW,2013-10-29 13:14:00,
2013-10-29 09:15:00,30.1,23.7,30.47,ESE,113,2.5,2.5,77,0.00,,,0.00,WUHU216HW,2013-10-29 13:15:00,
2013-10-29 09:16:00,30.2,23.9,30.47,ESE,113,2.5,2.5,77,0.00,,,0.00,WUHU216HW,2013-10-29 13:16:00,
2013-10-29 09:17:00,30.2,23.9,30.47,SE,135,1.8,2.5,77,0.00,,,0.00,WUHU216HW,2013-10-29 13:17:00,
2013-10-29 09:18:00,30.2,23.9,30.47,ESE,113,2.0,2.5,77,0.00,,,0.00,WUHU216HW,2013-10-29 13:18:00,
2013-10-29 09:21:00,30.6,24.2,30.47,SE,135,2.0,2.5,77,0.00,,,0.00,WUHU216HW,2013-10-29 13:21:00,
2013-10-29 09:22:00,30.6,24.2,30.47,ESE,113,1.6,2.5,77,0.00,,,0.00,WUHU216HW,2013-10-29 13:22:00,
2013-10-29 09:23:00,30.6,24.2,30.47,ESE,113,1.8,2.5,77,0.00,,,0.00,WUHU216HW,2013-10-29 13:23:00,
2013-10-29 09:24:00,30.8,24.4,30.47,SE,135,2.0,2.5,77,0.00,,,0.00,WUHU216HW,2013-10-29 13:24:00,
2013-10-29 09:25:00,30.8,24.1,30.47,SE,135,2.2,2.5,76,0.00,,,0.00,WUHU216HW,2013-10-29 13:25:00,
2013-10-29 09:26:00,31.0,24.3,30.47,SE,135,2.5,2.5,76,0.00,,,0.00,WUHU216HW,2013-10-29 13:26:00,
2013-10-29 09:27:00,31.0,24.3,30.47,SE,135,2.7,2.7,76,0.00,,,0.00,WUHU216HW,2013-10-29 13:27:00,
2013-10-29 09:28:00,31.1,24.5,30.47,SE,135,3.1,3.1,76,0.00,,,0.00,WUHU216HW,2013-10-29 13:28:00,
2013-10-29 09:29:00,31.3,24.7,30.47,ESE,113,2.7,3.1,76,0.00,,,0.00,WUHU216HW,2013-10-29 13:29:00,
2013-10-29 09:30:00,31.3,24.7,30.47,ESE,113,2.2,3.1,76,0.00,,,0.00,WUHU216HW,2013-10-29 13:30:00,
2013-10-29 09:31:00,31.5,24.9,30.47,SE,135,2.0,3.1,76,0.00,,,0.00,WUHU216HW,2013-10-29 13:31:00,
2013-10-29 09:33:00,31.7,25.0,30.47,SE,135,1.8,3.1,76,0.00,,,0.00,WUHU216HW,2013-10-29 13:33:00,
2013-10-29 09:34:00,31.9,25.2,30.47,SE,135,1.8,3.1,76,0.00,,,0.00,WUHU216HW,2013-10-29 13:34:00,
2013-10-29 09:35:00,31.9,25.2,30.47,East,90,2.5,3.1,76,0.00,,,0.00,WUHU216HW,2013-10-29 13:35:00,
2013-10-29 09:36:00,32.0,25.4,30.47,ESE,113,2.2,3.1,76,0.00,,,0.00,WUHU216HW,2013-10-29 13:36:00,
2013-10-29 09:37:00,32.0,25.4,30.47,SE,135,1.6,3.1,76,0.00,,,0.00,WUHU216HW,2013-10-29 13:37:00,
2013-10-29 09:38:00,32.0,25.4,30.47,East,90,1.8,2.7,76,0.00,,,0.00,WUHU216HW,2013-10-29 13:38:00,
2013-10-29 09:39:00,32.2,25.5,30.47,SE,135,1.1,2.5,76,0.00,,,0.00,WUHU216HW,2013-10-29 13:39:00,
2013-10-29 09:40:00,32.2,25.5,30.47,SE,135,1.6,2.5,76,0.00,,,0.00,WUHU216HW,2013-10-29 13:40:00,
2013-10-29 09:41:00,32.4,25.7,30.47,ESE,113,0.7,2.5,76,0.00,,,0.00,WUHU216HW,2013-10-29 13:41:00,
2013-10-29 09:42:00,32.4,25.7,30.46,SE,135,1.1,2.5,76,0.00,,,0.00,WUHU216HW,2013-10-29 13:42:00,
2013-10-29 09:43:00,32.6,25.8,30.47,SE,135,2.5,2.5,76,0.00,,,0.00,WUHU216HW,2013-10-29 13:43:00,
2013-10-29 09:44:00,32.8,26.0,30.47,ESE,113,2.5,2.5,76,0.00,,,0.00,WUHU216HW,2013-10-29 13:44:00,
2013-10-29 09:45:00,32.8,26.0,30.47,SE,135,1.8,2.5,76,0.00,,,0.00,WUHU216HW,2013-10-29 13:45:00,
2013-10-29 09:46:00,32.8,26.0,30.46,SE,135,1.8,2.5,76,0.00,,,0.00,WUHU216HW,2013-10-29 13:46:00,
2013-10-29 09:47:00,32.9,26.2,30.47,SSE,158,2.0,2.5,76,0.00,,,0.00,WUHU216HW,2013-10-29 13:47:00,
2013-10-29 09:48:00,32.9,26.2,30.46,SE,135,1.8,2.5,76,0.00,,,0.00,WUHU216HW,2013-10-29 13:48:00,
2013-10-29 09:49:00,33.1,26.3,30.46,ESE,113,1.8,2.5,76,0.00,,,0.00,WUHU216HW,2013-10-29 13:49:00,
2013-10-29 09:50:00,33.1,26.3,30.47,SE,135,2.5,2.5,76,0.00,,,0.00,WUHU216HW,2013-10-29 13:50:00,
2013-10-29 09:51:00,33.3,26.5,30.47,SE,135,2.5,2.5,76,0.00,,,0.00,WUHU216HW,2013-10-29 13:51:00,
2013-10-29 09:52:00,33.3,26.5,30.47,SE,135,3.1,3.1,76,0.00,,,0.00,WUHU216HW,2013-10-29 13:52:00,
2013-10-29 09:53:00,33.5,26.6,30.47,SE,135,2.7,3.1,76,0.00,,,0.00,WUHU216HW,2013-10-29 13:53:00,
2013-10-29 09:54:00,33.5,26.6,30.46,SE,135,2.5,3.1,76,0.00,,,0.00,WUHU216HW,2013-10-29 13:54:00,
2013-10-29 09:55:00,33.5,26.6,30.46,SE,135,2.7,3.1,76,0.00,,,0.00,WUHU216HW,2013-10-29 13:55:00,
2013-10-29 09:56:00,33.5,26.6,30.46,East,90,1.6,3.1,76,0.00,,,0.00,WUHU216HW,2013-10-29 13:56:00,
2013-10-29 09:57:00,33.7,26.8,30.46,East,90,2.5,3.1,76,0.00,,,0.00,WUHU216HW,2013-10-29 13:57:00,
2013-10-29 09:58:00,33.8,27.0,30.46,SE,135,3.1,3.1,76,0.00,,,0.00,WUHU216HW,2013-10-29 13:58:00,
2013-10-29 09:59:00,33.8,26.6,30.46,SE,135,3.1,3.1,75,0.00,,,0.00,WUHU216HW,2013-10-29 13:59:00,
2013-10-29 10:00:00,33.8,26.6,30.46,SE,135,1.8,3.1,75,0.00,,,0.00,WUHU216HW,2013-10-29 14:00:00,
2013-10-29 10:01:00,34.0,26.8,30.46,SE,135,2.2,3.1,75,0.00,,,0.00,WUHU216HW,2013-10-29 14:01:00,
2013-10-29 10:02:00,34.2,27.0,30.46,ESE,113,1.8,3.1,75,0.00,,,0.00,WUHU216HW,2013-10-29 14:02:00,
2013-10-29 10:03:00,34.2,27.0,30.46,SE,135,1.8,3.1,75,0.00,,,0.00,WUHU216HW,2013-10-29 14:03:00,
2013-10-29 10:04:00,34.2,27.0,30.46,ESE,113,2.5,3.1,75,0.00,,,0.00,WUHU216HW,2013-10-29 14:04:00,
2013-10-29 10:05:00,34.4,27.2,30.46,SE,135,2.5,3.1,75,0.00,,,0.00,WUHU216HW,2013-10-29 14:05:00,
2013-10-29 10:06:00,34.4,27.2,30.46,SE,135,2.5,3.1,75,0.00,,,0.00,WUHU216HW,2013-10-29 14:06:00,
2013-10-29 10:07:00,34.6,27.4,30.46,East,90,1.3,3.1,75,0.00,,,0.00,WUHU216HW,2013-10-29 14:07:00,
2013-10-29 10:08:00,34.7,27.5,30.45,East,90,1.1,3.1,75,0.00,,,0.00,WUHU216HW,2013-10-29 14:08:00,
2013-10-29 10:09:00,34.7,27.5,30.46,ESE,113,2.2,3.1,75,0.00,,,0.00,WUHU216HW,2013-10-29 14:09:00,
2013-10-29 10:10:00,34.7,27.5,30.46,SE,135,1.8,2.5,75,0.00,,,0.00,WUHU216HW,2013-10-29 14:10:00,
2013-10-29 10:11:00,34.9,27.7,30.46,ESE,113,2.2,2.5,75,0.00,,,0.00,WUHU216HW,2013-10-29 14:11:00,
2013-10-29 10:12:00,34.9,27.7,30.45,ENE,68,1.8,2.5,75,0.00,,,0.00,WUHU216HW,2013-10-29 14:12:00,
2013-10-29 10:13:00,35.1,27.9,30.46,East,90,3.4,3.4,75,0.00,,,0.00,WUHU216HW,2013-10-29 14:13:00,
2013-10-29 10:14:00,35.1,27.9,30.46,SE,135,0.7,3.4,75,0.00,,,0.00,WUHU216HW,2013-10-29 14:14:00,
2013-10-29 10:15:00,35.3,28.1,30.45,ENE,68,2.9,3.4,75,0.00,,,0.00,WUHU216HW,2013-10-29 14:15:00,
2013-10-29 10:16:00,35.3,28.1,30.45,ESE,113,2.7,3.4,75,0.00,,,0.00,WUHU216HW,2013-10-29 14:16:00,
2013-10-29 10:17:00,35.5,27.9,30.45,East,90,2.5,3.4,74,0.00,,,0.00,WUHU216HW,2013-10-29 14:17:00,
2013-10-29 10:18:00,35.5,27.9,30.45,SSE,158,2.0,3.4,74,0.00,,,0.00,WUHU216HW,2013-10-29 14:18:00,
2013-10-29 10:19:00,35.6,28.1,30.45,NE,45,0.9,3.4,74,0.00,,,0.00,WUHU216HW,2013-10-29 14:19:00,
2013-10-29 10:20:00,35.6,28.1,30.45,ESE,113,1.1,3.4,74,0.00,,,0.00,WUHU216HW,2013-10-29 14:20:00,
2013-10-29 10:21:00,35.6,28.1,30.45,SE,135,2.2,3.4,74,0.00,,,0.00,WUHU216HW,2013-10-29 14:21:00,
2013-10-29 10:22:00,35.8,28.3,30.45,ENE,68,2.7,3.4,74,0.00,,,0.00,WUHU216HW,2013-10-29 14:22:00,
2013-10-29 10:23:00,35.8,28.0,30.45,ENE,68,0.2,2.9,73,0.00,,,0.00,WUHU216HW,2013-10-29 14:23:00,
2013-10-29 10:24:00,35.8,28.0,30.45,East,90,1.1,2.9,73,0.00,,,0.00,WUHU216HW,2013-10-29 14:24:00,
2013-10-29 10:25:00,36.0,28.2,30.45,East,90,3.4,3.4,73,0.00,,,0.00,WUHU216HW,2013-10-29 14:25:00,
2013-10-29 10:26:00,36.0,28.2,30.45,ESE,113,4.0,4.0,73,0.00,,,0.00,WUHU216HW,2013-10-29 14:26:00,
2013-10-29 10:27:00,36.0,28.2,30.45,ESE,113,3.4,4.0,73,0.00,,,0.00,WUHU216HW,2013-10-29 14:27:00,
2013-10-29 10:28:00,36.2,28.4,30.45,SE,135,3.1,4.0,73,0.00,,,0.00,WUHU216HW,2013-10-29 14:28:00,
2013-10-29 10:29:00,36.2,28.4,30.45,ENE,68,3.1,4.0,73,0.00,,,0.00,WUHU216HW,2013-10-29 14:29:00,
2013-10-29 10:30:00,36.4,28.5,30.45,NNE,23,2.0,4.0,73,0.00,,,0.00,WUHU216HW,2013-10-29 14:30:00,
2013-10-29 10:31:00,36.4,28.2,30.45,SE,135,0.9,4.0,72,0.00,,,0.00,WUHU216HW,2013-10-29 14:31:00,
2013-10-29 10:32:00,36.4,28.2,30.45,ESE,113,2.5,4.0,72,0.00,,,0.00,WUHU216HW,2013-10-29 14:32:00,
2013-10-29 10:33:00,36.4,28.2,30.45,East,90,2.7,4.0,72,0.00,,,0.00,WUHU216HW,2013-10-29 14:33:00,
2013-10-29 10:34:00,36.4,28.2,30.45,SE,135,1.8,4.0,72,0.00,,,0.00,WUHU216HW,2013-10-29 14:34:00,
2013-10-29 10:35:00,36.5,28.4,30.45,ESE,113,2.9,4.0,72,0.00,,,0.00,WUHU216HW,2013-10-29 14:35:00,
2013-10-29 10:36:00,36.7,28.5,30.45,SE,135,1.6,3.4,72,0.00,,,0.00,WUHU216HW,2013-10-29 14:36:00,
2013-10-29 10:37:00,36.7,28.5,30.45,SE,135,1.6,3.1,72,0.00,,,0.00,WUHU216HW,2013-10-29 14:37:00,
2013-10-29 10:38:00,36.7,28.3,30.45,SE,135,1.6,3.1,71,0.00,,,0.00,WUHU216HW,2013-10-29 14:38:00,
2013-10-29 10:39:00,36.7,28.3,30.45,SSE,158,0.9,2.9,71,0.00,,,0.00,WUHU216HW,2013-10-29 14:39:00,
2013-10-29 10:40:00,36.9,28.5,30.45,NNE,23,0.7,2.9,71,0.00,,,0.00,WUHU216HW,2013-10-29 14:40:00,
2013-10-29 10:41:00,36.9,28.5,30.45,SE,135,1.8,2.9,71,0.00,,,0.00,WUHU216HW,2013-10-29 14:41:00,
2013-10-29 10:42:00,37.1,28.6,30.45,East,90,4.3,4.3,71,0.00,,,0.00,WUHU216HW,2013-10-29 14:42:00,
2013-10-29 10:43:00,37.1,28.6,30.45,East,90,2.2,4.3,71,0.00,,,0.00,WUHU216HW,2013-10-29 14:43:00,
2013-10-29 10:44:00,37.1,28.6,30.45,NNW,338,0.4,4.3,71,0.00,,,0.00,WUHU216HW,2013-10-29 14:44:00,
2013-10-29 10:45:00,37.1,28.6,30.45,NNW,338,0.4,4.3,71,0.00,,,0.00,WUHU216HW,2013-10-29 14:45:00,
2013-10-29 10:46:00,37.1,28.6,30.45,WNW,293,0.7,4.3,71,0.00,,,0.00,WUHU216HW,2013-10-29 14:46:00,
2013-10-29 10:47:00,37.3,28.8,30.45,NW,315,0.4,4.3,71,0.00,,,0.00,WUHU216HW,2013-10-29 14:47:00,
2013-10-29 10:48:00,37.3,28.8,30.45,NNW,338,0.2,4.3,71,0.00,,,0.00,WUHU216HW,2013-10-29 14:48:00,
2013-10-29 10:49:00,37.3,28.8,30.45,East,90,2.0,4.3,71,0.00,,,0.00,WUHU216HW,2013-10-29 14:49:00,
2013-10-29 10:50:00,37.3,28.8,30.45,ENE,68,3.4,4.3,71,0.00,,,0.00,WUHU216HW,2013-10-29 14:50:00,
2013-10-29 10:51:00,37.3,28.4,30.45,North,0,0.4,4.3,70,0.00,,,0.00,WUHU216HW,2013-10-29 14:51:00,
2013-10-29 10:52:00,37.3,28.4,30.45,SE,135,0.4,3.4,70,0.00,,,0.00,WUHU216HW,2013-10-29 14:52:00,
2013-10-29 10:53:00,37.3,28.4,30.45,NE,45,1.1,3.4,70,0.00,,,0.00,WUHU216HW,2013-10-29 14:53:00,
2013-10-29 10:54:00,37.3,28.4,30.45,ESE,113,2.2,3.4,70,0.00,,,0.00,WUHU216HW,2013-10-29 14:54:00,
2013-10-29 10:55:00,37.4,28.6,30.45,East,90,4.0,4.0,70,0.00,,,0.00,WUHU216HW,2013-10-29 14:55:00,
2013-10-29 10:56:00,37.4,28.6,30.45,ENE,68,1.6,4.0,70,0.00,,,0.00,WUHU216HW,2013-10-29 14:56:00,
2013-10-29 10:57:00,37.4,28.6,30.45,ESE,113,2.5,4.0,70,0.00,,,0.00,WUHU216HW,2013-10-29 14:57:00,
2013-10-29 10:58:00,37.6,28.8,30.45,NE,45,0.4,4.0,70,0.00,,,0.00,WUHU216HW,2013-10-29 14:58:00,
2013-10-29 10:59:00,37.6,28.8,30.45,NW,315,0.0,4.0,70,0.00,,,0.00,WUHU216HW,2013-10-29 14:59:00,
2013-10-29 11:00:00,37.6,28.8,30.45,SE,135,0.4,4.0,70,0.00,,,0.00,WUHU216HW,2013-10-29 15:00:00,
2013-10-29 11:01:00,37.6,28.8,30.45,ESE,113,3.1,4.0,70,0.00,,,0.00,WUHU216HW,2013-10-29 15:01:00,
2013-10-29 11:02:00,37.8,29.0,30.45,East,90,2.2,4.0,70,0.00,,,0.00,WUHU216HW,2013-10-29 15:02:00,
2013-10-29 11:03:00,37.8,28.5,30.45,SW,225,1.1,4.0,69,0.00,,,0.00,WUHU216HW,2013-10-29 15:03:00,
2013-10-29 11:04:00,37.8,28.5,30.45,NE,45,0.4,4.0,69,0.00,,,0.00,WUHU216HW,2013-10-29 15:04:00,
2013-10-29 11:05:00,37.8,28.5,30.45,SE,135,0.9,4.0,69,0.00,,,0.00,WUHU216HW,2013-10-29 15:05:00,
2013-10-29 11:06:00,37.8,28.5,30.45,NW,315,0.4,3.1,69,0.00,,,0.00,WUHU216HW,2013-10-29 15:06:00,
2013-10-29 11:07:00,37.8,28.5,30.45,WSW,248,0.7,3.1,69,0.00,,,0.00,WUHU216HW,2013-10-29 15:07:00,
2013-10-29 11:08:00,37.8,28.2,30.45,ENE,68,0.2,3.1,68,0.00,,,0.00,WUHU216HW,2013-10-29 15:08:00,
2013-10-29 11:09:00,37.8,28.2,30.45,ENE,68,1.1,3.1,68,0.00,,,0.00,WUHU216HW,2013-10-29 15:09:00,
2013-10-29 11:10:00,37.8,28.5,30.45,NW,315,0.7,3.1,69,0.00,,,0.00,WUHU216HW,2013-10-29 15:10:00,
2013-10-29 11:11:00,37.6,28.0,30.45,NW,315,0.0,2.2,68,0.00,,,0.00,WUHU216HW,2013-10-29 15:11:00,
2013-10-29 11:12:00,37.8,28.2,30.45,ESE,113,1.8,1.8,68,0.00,,,0.00,WUHU216HW,2013-10-29 15:12:00,
2013-10-29 11:13:00,37.6,28.0,30.45,SE,135,1.6,1.8,68,0.00,,,0.00,WUHU216HW,2013-10-29 15:13:00,
2013-10-29 11:14:00,37.8,28.2,30.45,SE,135,1.1,1.8,68,0.00,,,0.00,WUHU216HW,2013-10-29 15:14:00,
2013-10-29 11:15:00,37.8,28.2,30.45,SSW,203,0.4,1.8,68,0.00,,,0.00,WUHU216HW,2013-10-29 15:15:00,
2013-10-29 11:16:00,37.8,28.2,30.45,NNW,338,1.3,1.8,68,0.00,,,0.00,WUHU216HW,2013-10-29 15:16:00,
2013-10-29 11:17:00,37.8,28.2,30.45,NE,45,1.1,1.8,68,0.00,,,0.00,WUHU216HW,2013-10-29 15:17:00,
2013-10-29 11:18:00,37.8,28.2,30.45,NNW,338,1.8,1.8,68,0.00,,,0.00,WUHU216HW,2013-10-29 15:18:00,
2013-10-29 11:19:00,37.6,28.0,30.45,NW,315,2.0,2.0,68,0.00,,,0.00,WUHU216HW,2013-10-29 15:19:00,
2013-10-29 11:20:00,37.6,27.6,30.45,NW,315,2.0,2.0,67,0.00,,,0.00,WUHU216HW,2013-10-29 15:20:00,
2013-10-29 11:21:00,37.6,27.6,30.45,NW,315,1.6,2.0,67,0.00,,,0.00,WUHU216HW,2013-10-29 15:21:00,
2013-10-29 11:22:00,37.4,27.5,30.45,WNW,293,2.0,2.0,67,0.00,,,0.00,WUHU216HW,2013-10-29 15:22:00,
2013-10-29 11:23:00,37.6,27.6,30.45,NW,315,2.0,2.0,67,0.00,,,0.00,WUHU216HW,2013-10-29 15:23:00,
2013-10-29 11:24:00,37.4,27.5,30.45,West,270,1.8,2.0,67,0.00,,,0.00,WUHU216HW,2013-10-29 15:24:00,
2013-10-29 11:25:00,37.4,27.5,30.45,NW,315,1.1,2.0,67,0.00,,,0.00,WUHU216HW,2013-10-29 15:25:00,
2013-10-29 11:26:00,37.4,27.9,30.45,NW,315,1.1,2.0,68,0.00,,,0.00,WUHU216HW,2013-10-29 15:26:00,
2013-10-29 11:27:00,37.4,27.9,30.45,North,0,1.8,2.0,68,0.00,,,0.00,WUHU216HW,2013-10-29 15:27:00,
2013-10-29 11:28:00,37.4,27.9,30.45,NNW,338,1.1,2.0,68,0.00,,,0.00,WUHU216HW,2013-10-29 15:28:00,
2013-10-29 11:29:00,37.4,27.9,30.45,NNW,338,1.3,2.0,68,0.00,,,0.00,WUHU216HW,2013-10-29 15:29:00,
2013-10-29 11:30:00,37.4,27.9,30.45,NNW,338,2.5,2.5,68,0.00,,,0.00,WUHU216HW,2013-10-29 15:30:00,
2013-10-29 11:31:00,37.4,27.9,30.45,NW,315,2.2,2.5,68,0.00,,,0.00,WUHU216HW,2013-10-29 15:31:00,
2013-10-29 11:32:00,37.4,27.9,30.45,NW,315,2.7,2.7,68,0.00,,,0.00,WUHU216HW,2013-10-29 15:32:00,
2013-10-29 11:33:00,37.4,27.9,30.45,NW,315,2.0,2.7,68,0.00,,,0.00,WUHU216HW,2013-10-29 15:33:00,
2013-10-29 11:34:00,37.3,27.7,30.45,NW,315,1.8,2.7,68,0.00,,,0.00,WUHU216HW,2013-10-29 15:34:00,
2013-10-29 11:35:00,37.3,27.7,30.45,NW,315,1.6,2.7,68,0.00,,,0.00,WUHU216HW,2013-10-29 15:35:00,
2013-10-29 11:36:00,37.3,27.7,30.45,NNW,338,2.0,2.7,68,0.00,,,0.00,WUHU216HW,2013-10-29 15:36:00,
2013-10-29 11:37:00,37.1,27.6,30.45,NNW,338,2.5,2.7,68,0.00,,,0.00,WUHU216HW,2013-10-29 15:37:00,
2013-10-29 11:38:00,37.1,27.6,30.45,NNW,338,2.0,2.7,68,0.00,,,0.00,WUHU216HW,2013-10-29 15:38:00,
2013-10-29 11:39:00,37.1,27.6,30.45,NW,315,1.3,2.7,68,0.00,,,0.00,WUHU216HW,2013-10-29 15:39:00,
2013-10-29 11:40:00,37.1,27.6,30.45,NNW,338,1.3,2.7,68,0.00,,,0.00,WUHU216HW,2013-10-29 15:40:00,
2013-10-29 11:41:00,37.1,27.6,30.45,NW,315,2.7,2.7,68,0.00,,,0.00,WUHU216HW,2013-10-29 15:41:00,
2013-10-29 11:42:00,37.1,27.6,30.45,NNW,338,3.1,3.1,68,0.00,,,0.00,WUHU216HW,2013-10-29 15:42:00,
2013-10-29 11:43:00,36.9,27.4,30.45,NW,315,2.5,3.1,68,0.00,,,0.00,WUHU216HW,2013-10-29 15:43:00,
2013-10-29 11:44:00,37.1,27.6,30.45,NNW,338,2.5,3.1,68,0.00,,,0.00,WUHU216HW,2013-10-29 15:44:00,
2013-10-29 11:45:00,37.1,27.6,30.45,NNW,338,3.1,3.1,68,0.00,,,0.00,WUHU216HW,2013-10-29 15:45:00,
2013-10-29 11:46:00,37.1,27.6,30.45,NNW,338,1.6,3.1,68,0.00,,,0.00,WUHU216HW,2013-10-29 15:46:00,
2013-10-29 11:47:00,37.1,27.6,30.45,NNW,338,2.2,3.1,68,0.00,,,0.00,WUHU216HW,2013-10-29 15:47:00,
2013-10-29 11:48:00,37.1,27.6,30.45,NW,315,1.1,3.1,68,0.00,,,0.00,WUHU216HW,2013-10-29 15:48:00,
2013-10-29 11:49:00,37.1,27.6,30.45,NW,315,1.1,3.1,68,0.00,,,0.00,WUHU216HW,2013-10-29 15:49:00,
2013-10-29 11:50:00,37.1,27.2,30.45,NW,315,1.8,3.1,67,0.00,,,0.00,WUHU216HW,2013-10-29 15:50:00,
2013-10-29 11:51:00,37.1,27.2,30.45,NW,315,2.7,3.1,67,0.00,,,0.00,WUHU216HW,2013-10-29 15:51:00,
2013-10-29 11:52:00,37.1,27.2,30.45,NNW,338,2.2,3.1,67,0.00,,,0.00,WUHU216HW,2013-10-29 15:52:00,
2013-10-29 11:53:00,37.1,27.2,30.45,NW,315,1.8,3.1,67,0.00,,,0.00,WUHU216HW,2013-10-29 15:53:00,
2013-10-29 11:54:00,37.1,27.2,30.45,NNW,338,0.7,3.1,67,0.00,,,0.00,WUHU216HW,2013-10-29 15:54:00,
2013-10-29 11:55:00,37.1,27.2,30.45,NNW,338,1.8,2.7,67,0.00,,,0.00,WUHU216HW,2013-10-29 15:55:00,
2013-10-29 11:56:00,37.1,27.2,30.45,NW,315,1.8,2.7,67,0.00,,,0.00,WUHU216HW,2013-10-29 15:56:00,
2013-10-29 11:57:00,37.1,27.2,30.45,NW,315,1.8,2.7,67,0.00,,,0.00,WUHU216HW,2013-10-29 15:57:00,
2013-10-29 11:58:00,37.1,27.2,30.45,NW,315,2.2,2.7,67,0.00,,,0.00,WUHU216HW,2013-10-29 15:58:00,
2013-10-29 11:59:00,37.1,27.2,30.44,NNW,338,2.2,2.7,67,0.00,,,0.00,WUHU216HW,2013-10-29 15:59:00,
2013-10-29 12:00:00,37.3,27.3,30.44,NNW,338,2.5,2.7,67,0.00,,,0.00,WUHU216HW,2013-10-29 16:00:00,
2013-10-29 12:01:00,37.1,26.7,30.44,NNW,338,1.8,2.7,66,0.00,,,0.00,WUHU216HW,2013-10-29 16:01:00,
2013-10-29 12:02:00,37.3,27.3,30.44,NNW,338,1.3,2.5,67,0.00,,,0.00,WUHU216HW,2013-10-29 16:02:00,
2013-10-29 12:03:00,37.3,26.9,30.44,NNW,338,2.9,2.9,66,0.00,,,0.00,WUHU216HW,2013-10-29 16:03:00,
2013-10-29 12:04:00,37.3,26.6,30.45,NNW,338,3.6,3.6,65,0.00,,,0.00,WUHU216HW,2013-10-29 16:04:00,
2013-10-29 12:05:00,37.3,26.6,30.45,NNW,338,2.5,3.6,65,0.00,,,0.00,WUHU216HW,2013-10-29 16:05:00,
2013-10-29 12:06:00,37.3,26.2,30.44,NNW,338,2.5,3.6,64,0.00,,,0.00,WUHU216HW,2013-10-29 16:06:00,
2013-10-29 12:07:00,37.3,26.2,30.44,NW,315,1.1,3.6,64,0.00,,,0.00,WUHU216HW,2013-10-29 16:07:00,
2013-10-29 12:08:00,37.3,26.2,30.44,ESE,113,2.5,3.6,64,0.00,,,0.00,WUHU216HW,2013-10-29 16:08:00,
2013-10-29 12:09:00,37.4,26.7,30.44,NNE,23,0.9,3.6,65,0.00,,,0.00,WUHU216HW,2013-10-29 16:09:00,
2013-10-29 12:10:00,37.4,26.7,30.44,NW,315,2.2,3.6,65,0.00,,,0.00,WUHU216HW,2013-10-29 16:10:00,
2013-10-29 12:11:00,37.4,26.0,30.44,NW,315,1.8,3.6,63,0.00,,,0.00,WUHU216HW,2013-10-29 16:11:00,
2013-10-29 12:12:00,37.6,26.1,30.44,NW,315,1.8,3.6,63,0.00,,,0.00,WUHU216HW,2013-10-29 16:12:00,
2013-10-29 12:13:00,37.6,26.1,30.44,NW,315,2.9,3.6,63,0.00,,,0.00,WUHU216HW,2013-10-29 16:13:00,
2013-10-29 12:14:00,37.6,26.1,30.44,NNW,338,2.0,2.9,63,0.00,,,0.00,WUHU216HW,2013-10-29 16:14:00,
2013-10-29 12:21:00,37.8,26.3,30.44,NW,315,1.8,3.8,63,0.00,,,0.00,WUHU216HW,2013-10-29 16:21:00,
2013-10-29 12:26:00,37.8,26.3,30.44,NNW,338,3.4,3.8,63,0.00,,,0.00,WUHU216HW,2013-10-29 16:26:00,
2013-10-29 12:31:00,37.8,26.3,30.44,NW,315,2.7,3.8,63,0.00,,,0.00,WUHU216HW,2013-10-29 16:31:00,
2013-10-29 12:36:00,37.8,26.3,30.43,NW,315,4.0,4.0,63,0.00,,,0.00,WUHU216HW,2013-10-29 16:36:00,
2013-10-29 12:41:00,38.0,26.5,30.43,NW,315,3.4,4.7,63,0.00,,,0.00,WUHU216HW,2013-10-29 16:41:00,
2013-10-29 12:46:00,38.0,26.5,30.43,NW,315,3.4,4.7,63,0.00,,,0.00,WUHU216HW,2013-10-29 16:46:00,
2013-10-29 12:51:00,38.3,26.8,30.43,NNW,338,2.2,4.5,63,0.00,,,0.00,WUHU216HW,2013-10-29 16:51:00,
2013-10-29 12:56:00,38.3,26.8,30.42,NNW,338,3.6,4.5,63,0.00,,,0.00,WUHU216HW,2013-10-29 16:56:00,
2013-10-29 13:01:00,38.3,26.4,30.42,NNW,338,2.7,4.0,62,0.00,,,0.00,WUHU216HW,2013-10-29 17:01:00,
2013-10-29 13:06:00,38.5,26.6,30.42,NNW,338,3.4,4.0,62,0.00,,,0.00,WUHU216HW,2013-10-29 17:06:00,
2013-10-29 13:11:00,38.5,26.6,30.42,NNW,338,2.9,4.0,62,0.00,,,0.00,WUHU216HW,2013-10-29 17:11:00,
2013-10-29 13:16:00,38.5,26.2,30.42,NW,315,2.5,3.6,61,0.00,,,0.00,WUHU216HW,2013-10-29 17:16:00,
2013-10-29 13:21:00,38.7,26.4,30.41,NW,315,2.7,3.4,61,0.00,,,0.00,WUHU216HW,2013-10-29 17:21:00,
2013-10-29 13:51:00,39.2,27.2,30.41,NW,315,3.6,3.6,62,0.00,,,0.00,WUHU216HW,2013-10-29 17:51:00,
2013-10-29 13:56:00,39.2,26.8,30.41,NW,315,2.9,3.6,61,0.00,,,0.00,WUHU216HW,2013-10-29 17:56:00,
2013-10-29 14:01:00,39.2,26.8,30.40,NW,315,3.1,3.6,61,0.00,,,0.00,WUHU216HW,2013-10-29 18:01:00,
2013-10-29 14:06:00,39.4,27.0,30.40,NNW,338,3.6,3.8,61,0.00,,,0.00,WUHU216HW,2013-10-29 18:06:00,
2013-10-29 14:11:00,39.6,27.5,30.40,NNW,338,3.8,3.8,62,0.00,,,0.00,WUHU216HW,2013-10-29 18:11:00,
2013-10-29 14:16:00,39.6,27.2,30.39,NNW,338,2.7,3.8,61,0.00,,,0.00,WUHU216HW,2013-10-29 18:16:00,
2013-10-29 14:21:00,39.6,27.2,30.39,NNW,338,4.0,4.0,61,0.00,,,0.00,WUHU216HW,2013-10-29 18:21:00,
2013-10-29 14:26:00,39.8,27.0,30.39,NW,315,2.5,4.0,60,0.00,,,0.00,WUHU216HW,2013-10-29 18:26:00,
2013-10-29 14:31:00,39.8,27.4,30.39,NW,315,3.4,3.8,61,0.00,,,0.00,WUHU216HW,2013-10-29 18:31:00,
2013-10-29 14:36:00,40.0,27.2,30.39,NW,315,3.4,4.0,60,0.00,,,0.00,WUHU216HW,2013-10-29 18:36:00,
2013-10-29 14:41:00,40.0,27.5,30.39,NW,315,3.4,4.0,61,0.00,,,0.00,WUHU216HW,2013-10-29 18:41:00,
2013-10-29 14:46:00,40.3,27.5,30.39,NW,315,2.5,3.4,60,0.00,,,0.00,WUHU216HW,2013-10-29 18:46:00,
2013-10-29 14:51:00,40.5,27.7,30.39,NW,315,2.2,3.4,60,0.00,,,0.00,WUHU216HW,2013-10-29 18:51:00,
2013-10-29 14:56:00,40.7,27.0,30.39,WNW,293,2.5,2.5,58,0.00,,,0.00,WUHU216HW,2013-10-29 18:56:00,
2013-10-29 15:01:00,40.9,27.6,30.39,NW,315,1.1,2.5,59,0.00,,,0.00,WUHU216HW,2013-10-29 19:01:00,
2013-10-29 15:06:00,41.0,27.8,30.39,WNW,293,1.8,2.2,59,0.00,,,0.00,WUHU216HW,2013-10-29 19:06:00,
2013-10-29 15:11:00,41.4,28.2,30.39,NW,315,1.8,2.5,59,0.00,,,0.00,WUHU216HW,2013-10-29 19:11:00,
2013-10-29 15:16:00,41.4,27.7,30.39,WNW,293,1.3,3.4,58,0.00,,,0.00,WUHU216HW,2013-10-29 19:16:00,
2013-10-29 15:21:00,41.4,27.3,30.39,WNW,293,2.0,3.4,57,0.00,,,0.00,WUHU216HW,2013-10-29 19:21:00,
2013-10-29 15:26:00,41.6,27.9,30.39,NW,315,1.1,3.4,58,0.00,,,0.00,WUHU216HW,2013-10-29 19:26:00,
2013-10-29 15:31:00,41.6,27.9,30.39,NW,315,1.8,2.5,58,0.00,,,0.00,WUHU216HW,2013-10-29 19:31:00,
2013-10-29 15:36:00,41.6,27.9,30.38,NW,315,0.0,2.5,58,0.00,,,0.00,WUHU216HW,2013-10-29 19:36:00,
2013-10-29 15:41:00,41.9,28.2,30.37,NW,315,0.7,2.2,58,0.00,,,0.00,WUHU216HW,2013-10-29 19:41:00,
2013-10-29 15:46:00,42.1,28.4,30.37,NW,315,0.0,1.3,58,0.00,,,0.00,WUHU216HW,2013-10-29 19:46:00,
2013-10-29 15:51:00,42.5,28.7,30.37,SE,135,0.2,1.3,58,0.00,,,0.00,WUHU216HW,2013-10-29 19:51:00,
2013-10-29 15:56:00,42.8,29.0,30.37,ESE,113,0.4,3.1,58,0.00,,,0.00,WUHU216HW,2013-10-29 19:56:00,
2013-10-29 16:01:00,43.6,29.7,30.37,ESE,113,2.0,3.1,58,0.00,,,0.00,WUHU216HW,2013-10-29 20:01:00,
2013-10-29 16:06:00,44.6,30.3,30.37,SE,135,1.3,2.0,57,0.00,,,0.00,WUHU216HW,2013-10-29 20:06:00,
2013-10-29 16:11:00,45.7,31.3,30.37,SE,135,2.0,3.1,57,0.00,,,0.00,WUHU216HW,2013-10-29 20:11:00,
2013-10-29 16:16:00,46.4,31.5,30.36,SE,135,1.8,3.8,56,0.00,,,0.00,WUHU216HW,2013-10-29 20:16:00,
2013-10-29 16:21:00,46.8,31.4,30.36,ESE,113,1.8,3.8,55,0.00,,,0.00,WUHU216HW,2013-10-29 20:21:00,
2013-10-29 16:26:00,47.3,31.9,30.36,East,90,0.4,3.1,55,0.00,,,0.00,WUHU216HW,2013-10-29 20:26:00,
2013-10-29 16:31:00,48.2,32.3,30.36,SE,135,1.8,4.0,54,0.00,,,0.00,WUHU216HW,2013-10-29 20:31:00,
2013-10-29 16:36:00,49.3,32.9,30.36,SE,135,2.7,4.0,53,0.00,,,0.00,WUHU216HW,2013-10-29 20:36:00,
2013-10-29 16:41:00,51.1,34.1,30.36,SSW,203,0.2,3.4,52,0.00,,,0.00,WUHU216HW,2013-10-29 20:41:00,
2013-10-29 16:46:00,52.2,34.2,30.36,SE,135,1.8,3.4,50,0.00,,,0.00,WUHU216HW,2013-10-29 20:46:00,
2013-10-29 16:51:00,51.8,33.3,30.36,SSE,158,2.2,2.9,49,0.00,,,0.00,WUHU216HW,2013-10-29 20:51:00,
2013-10-29 16:56:00,51.5,32.9,30.36,SSE,158,1.1,2.7,49,0.00,,,0.00,WUHU216HW,2013-10-29 20:56:00,
2013-10-29 17:01:00,53.1,34.4,30.36,SSE,158,1.1,2.5,49,0.00,,,0.00,WUHU216HW,2013-10-29 21:01:00,
2013-10-29 17:06:00,55.4,36.0,30.35,SSW,203,0.7,2.2,48,0.00,,,0.00,WUHU216HW,2013-10-29 21:06:00,
2013-10-29 17:11:00,57.6,36.9,30.36,SSE,158,0.7,1.6,46,0.00,,,0.00,WUHU216HW,2013-10-29 21:11:00,
2013-10-29 17:16:00,59.0,37.1,30.36,SSE,158,0.7,1.6,44,0.00,,,0.00,WUHU216HW,2013-10-29 21:16:00,
2013-10-29 17:21:00,59.0,35.3,30.36,SSE,158,0.9,1.6,41,0.00,,,0.00,WUHU216HW,2013-10-29 21:21:00,
2013-10-29 17:26:00,57.6,34.6,30.36,SSE,158,0.0,0.9,42,0.00,,,0.00,WUHU216HW,2013-10-29 21:26:00,
2013-10-29 17:31:00,55.6,32.8,30.36,SSE,158,0.0,0.4,42,0.00,,,0.00,WUHU216HW,2013-10-29 21:31:00,
2013-10-29 17:36:00,53.5,31.4,30.36,SSE,158,0.0,0.0,43,0.00,,,0.00,WUHU216HW,2013-10-29 21:36:00,
2013-10-29 17:41:00,51.3,29.4,30.36,SSE,158,0.0,0.0,43,0.00,,,0.00,WUHU216HW,2013-10-29 21:41:00,
2013-10-29 17:46:00,49.3,28.2,30.37,SSE,158,0.0,0.0,44,0.00,,,0.00,WUHU216HW,2013-10-29 21:46:00,
2013-10-29 17:51:00,48.1,27.5,30.37,SW,225,0.0,0.0,45,0.00,,,0.00,WUHU216HW,2013-10-29 21:51:00,
2013-10-29 17:56:00,47.2,27.3,30.37,SW,225,0.0,0.0,46,0.00,,,0.00,WUHU216HW,2013-10-29 21:56:00,
2013-10-29 18:01:00,46.1,26.8,30.37,SW,225,0.0,0.0,47,0.00,,,0.00,WUHU216HW,2013-10-29 22:01:00,
2013-10-29 18:06:00,45.5,26.9,30.37,WSW,248,0.0,0.0,48,0.00,,,0.00,WUHU216HW,2013-10-29 22:06:00,
2013-10-29 18:11:00,44.8,26.8,30.37,WSW,248,0.0,0.4,49,0.00,,,0.00,WUHU216HW,2013-10-29 22:11:00,
2013-10-29 18:12:00,44.8,26.8,30.37,WSW,248,0.0,0.0,49,0.00,,,0.00,WUHU216HW,2013-10-29 22:12:00,
2013-10-29 18:16:00,44.8,26.8,30.37,WSW,248,0.0,0.4,49,0.00,,,0.00,WUHU216HW,2013-10-29 22:16:00,
2013-10-29 18:21:00,44.8,26.8,30.37,WSW,248,0.0,0.0,49,0.00,,,0.00,WUHU216HW,2013-10-29 22:21:00,
2013-10-29 18:42:00,41.0,24.7,30.38,SE,135,0.0,0.0,52,0.00,,,0.00,WUHU216HW,2013-10-29 22:42:00,
2013-10-29 18:47:00,40.7,24.3,30.38,SE,135,0.0,0.0,52,0.00,,,0.00,WUHU216HW,2013-10-29 22:47:00,
2013-10-29 18:52:00,40.5,24.1,30.38,SE,135,0.0,0.7,52,0.00,,,0.00,WUHU216HW,2013-10-29 22:52:00,
2013-10-29 18:57:00,40.3,24.5,30.38,SE,135,0.0,0.7,53,0.00,,,0.00,WUHU216HW,2013-10-29 22:57:00,
2013-10-29 19:02:00,40.3,24.8,30.38,SE,135,0.0,0.0,54,0.00,,,0.00,WUHU216HW,2013-10-29 23:02:00,
2013-10-29 19:07:00,40.1,24.8,30.38,SE,135,0.9,0.9,54,0.00,,,0.00,WUHU216HW,2013-10-29 23:07:00,
2013-10-29 19:12:00,39.8,24.4,30.38,SE,135,0.0,1.1,54,0.00,,,0.00,WUHU216HW,2013-10-29 23:12:00,
2013-10-29 19:17:00,39.6,24.7,30.38,SE,135,0.0,1.1,55,0.00,,,0.00,WUHU216HW,2013-10-29 23:17:00,
2013-10-29 19:22:00,39.4,24.5,30.38,SE,135,2.7,2.7,55,0.00,,,0.00,WUHU216HW,2013-10-29 23:22:00,
2013-10-29 19:27:00,39.1,24.1,30.38,SE,135,2.2,2.7,55,0.00,,,0.00,WUHU216HW,2013-10-29 23:27:00,
2013-10-29 19:32:00,38.2,23.8,30.38,SE,135,2.5,2.7,56,0.00,,,0.00,WUHU216HW,2013-10-29 23:32:00,
2013-10-29 19:37:00,37.3,23.4,30.38,SE,135,2.0,2.9,57,0.00,,,0.00,WUHU216HW,2013-10-29 23:37:00,
2013-10-29 19:42:00,36.5,23.1,30.38,ESE,113,1.3,2.9,58,0.00,,,0.00,WUHU216HW,2013-10-29 23:42:00,
2013-10-29 19:47:00,36.5,23.1,30.38,ESE,113,1.8,1.8,58,0.00,,,0.00,WUHU216HW,2013-10-29 23:47:00,
2013-10-29 19:52:00,36.5,23.1,30.38,ESE,113,1.8,1.8,58,0.00,,,0.00,WUHU216HW,2013-10-29 23:52:00,
2013-10-29 20:00:00,35.6,23.2,30.38,ESE,113,2.5,2.5,60,0.00,,,0.00,WUHU216HW,2013-10-30 00:00:00,
2013-10-29 20:05:00,35.6,23.2,30.37,ESE,113,1.8,2.5,60,0.00,,,0.00,WUHU216HW,2013-10-30 00:05:00,
2013-10-29 20:10:00,35.5,23.0,30.37,SE,135,1.8,2.0,60,0.00,,,0.00,WUHU216HW,2013-10-30 00:10:00,
2013-10-29 20:15:00,35.3,22.9,30.37,SE,135,1.8,1.8,60,0.00,,,0.00,WUHU216HW,2013-10-30 00:15:00,
2013-10-29 20:20:00,34.9,22.5,30.37,SE,135,1.8,2.5,60,0.00,,,0.00,WUHU216HW,2013-10-30 00:20:00,
2013-10-29 20:25:00,34.6,22.5,30.37,SE,135,1.8,2.7,61,0.00,,,0.00,WUHU216HW,2013-10-30 00:25:00,
2013-10-29 20:30:00,34.6,22.5,30.37,SE,135,1.8,2.7,61,0.00,,,0.00,WUHU216HW,2013-10-30 00:30:00,
2013-10-29 20:35:00,34.4,22.3,30.37,SE,135,2.0,2.5,61,0.00,,,0.00,WUHU216HW,2013-10-30 00:35:00,
2013-10-29 20:40:00,34.2,22.5,30.37,SE,135,1.6,2.5,62,0.00,,,0.00,WUHU216HW,2013-10-30 00:40:00,
2013-10-29 20:45:00,34.2,22.5,30.37,SE,135,1.8,2.5,62,0.00,,,0.00,WUHU216HW,2013-10-30 00:45:00,
2013-10-29 20:50:00,34.0,22.3,30.37,SE,135,1.8,2.5,62,0.00,,,0.00,WUHU216HW,2013-10-30 00:50:00,
2013-10-29 20:55:00,33.8,22.5,30.36,SE,135,2.0,2.0,63,0.00,,,0.00,WUHU216HW,2013-10-30 00:55:00,
2013-10-29 21:00:00,33.5,22.1,30.37,SE,135,1.6,2.0,63,0.00,,,0.00,WUHU216HW,2013-10-30 01:00:00,
2013-10-29 21:05:00,33.5,22.1,30.36,SE,135,1.8,2.0,63,0.00,,,0.00,WUHU216HW,2013-10-30 01:05:00,
2013-10-29 21:10:00,33.1,22.2,30.36,SE,135,2.0,2.0,64,0.00,,,0.00,WUHU216HW,2013-10-30 01:10:00,
2013-10-29 21:15:00,32.8,21.9,30.36,SE,135,1.8,2.0,64,0.00,,,0.00,WUHU216HW,2013-10-30 01:15:00,
2013-10-29 21:20:00,32.4,21.6,30.35,SSE,158,2.5,2.5,64,0.00,,,0.00,WUHU216HW,2013-10-30 01:20:00,
2013-10-29 21:25:00,32.0,21.6,30.35,SE,135,2.2,2.5,65,0.00,,,0.00,WUHU216HW,2013-10-30 01:25:00,
2013-10-29 21:30:00,31.9,21.8,30.35,SE,135,2.5,2.7,66,0.00,,,0.00,WUHU216HW,2013-10-30 01:30:00,
2013-10-29 21:35:00,31.5,21.4,30.35,SE,135,2.0,2.7,66,0.00,,,0.00,WUHU216HW,2013-10-30 01:35:00,
2013-10-29 21:40:00,31.3,21.2,30.35,SE,135,2.9,2.9,66,0.00,,,0.00,WUHU216HW,2013-10-30 01:40:00,
2013-10-29 21:45:00,31.3,21.2,30.35,SE,135,2.5,2.9,66,0.00,,,0.00,WUHU216HW,2013-10-30 01:45:00,
2013-10-29 21:50:00,31.1,21.1,30.35,SE,135,2.5,2.9,66,0.00,,,0.00,WUHU216HW,2013-10-30 01:50:00,
2013-10-29 21:55:00,31.0,20.9,30.35,SE,135,1.8,2.7,66,0.00,,,0.00,WUHU216HW,2013-10-30 01:55:00,
2013-10-29 22:00:00,31.0,21.2,30.35,SE,135,2.5,2.5,67,0.00,,,0.00,WUHU216HW,2013-10-30 02:00:00,
2013-10-29 22:05:00,30.8,21.4,30.35,SE,135,2.0,2.5,68,0.00,,,0.00,WUHU216HW,2013-10-30 02:05:00,
2013-10-29 22:10:00,30.8,21.4,30.35,SSE,158,2.5,2.5,68,0.00,,,0.00,WUHU216HW,2013-10-30 02:10:00,
2013-10-29 22:15:00,31.0,22.0,30.35,SSE,158,3.1,3.1,69,0.00,,,0.00,WUHU216HW,2013-10-30 02:15:00,
2013-10-29 22:20:00,31.0,22.3,30.34,SSE,158,2.5,3.1,70,0.00,,,0.00,WUHU216HW,2013-10-30 02:20:00,
2013-10-29 22:25:00,31.3,22.7,30.34,SSE,158,2.0,2.9,70,0.00,,,0.00,WUHU216HW,2013-10-30 02:25:00,
2013-10-29 22:30:00,31.5,22.9,30.34,SE,135,1.3,2.9,70,0.00,,,0.00,WUHU216HW,2013-10-30 02:30:00,
2013-10-29 22:35:00,31.7,23.0,30.34,SE,135,2.2,2.2,70,0.00,,,0.00,WUHU216HW,2013-10-30 02:35:00,
2013-10-29 22:40:00,31.7,23.0,30.34,SE,135,2.9,2.9,70,0.00,,,0.00,WUHU216HW,2013-10-30 02:40:00,
2013-10-29 22:45:00,31.9,23.2,30.34,SE,135,2.5,2.9,70,0.00,,,0.00,WUHU216HW,2013-10-30 02:45:00,
2013-10-29 22:50:00,31.7,23.0,30.34,ESE,113,3.4,3.4,70,0.00,,,0.00,WUHU216HW,2013-10-30 02:50:00,
2013-10-29 22:55:00,31.5,22.9,30.34,SE,135,2.2,3.4,70,0.00,,,0.00,WUHU216HW,2013-10-30 02:55:00,
2013-10-29 23:00:00,31.3,23.1,30.34,SE,135,2.7,2.9,71,0.00,,,0.00,WUHU216HW,2013-10-30 03:00:00,
2013-10-29 23:05:00,31.3,23.1,30.34,ESE,113,3.1,3.1,71,0.00,,,0.00,WUHU216HW,2013-10-30 03:05:00,
2013-10-29 23:10:00,31.3,23.1,30.34,SE,135,2.7,3.1,71,0.00,,,0.00,WUHU216HW,2013-10-30 03:10:00,
2013-10-29 23:15:00,31.3,23.1,30.34,ESE,113,2.9,2.9,71,0.00,,,0.00,WUHU216HW,2013-10-30 03:15:00,
2013-10-29 23:20:00,31.3,23.3,30.34,SE,135,2.9,3.4,72,0.00,,,0.00,WUHU216HW,2013-10-30 03:20:00,
2013-10-29 23:25:00,31.3,23.3,30.34,ESE,113,3.4,3.4,72,0.00,,,0.00,WUHU216HW,2013-10-30 03:25:00,
2013-10-29 23:30:00,31.3,23.3,30.34,SE,135,2.7,3.4,72,0.00,,,0.00,WUHU216HW,2013-10-30 03:30:00,
2013-10-29 23:35:00,31.3,23.3,30.33,SE,135,3.4,3.4,72,0.00,,,0.00,WUHU216HW,2013-10-30 03:35:00,
2013-10-29 23:40:00,31.1,23.1,30.33,SE,135,3.6,3.6,72,0.00,,,0.00,WUHU216HW,2013-10-30 03:40:00,
2013-10-29 23:45:00,31.0,23.0,30.33,SE,135,2.5,3.6,72,0.00,,,0.00,WUHU216HW,2013-10-30 03:45:00,
2013-10-29 23:50:00,31.0,23.3,30.32,SE,135,2.5,3.6,73,0.00,,,0.00,WUHU216HW,2013-10-30 03:50:00,
2013-10-29 23:55:00,30.8,23.1,30.32,SE,135,2.5,3.1,73,0.00,,,0.00,WUHU216HW,2013-10-30 03:55:00,